sensor_id;sensor_type;location;lat;lon;timestamp;P1;durP1;ratioP1;P2;durP2;ratioP2
18649;SDS011;9454;53.516;10.478;2023-06-26T00:01:21;9.02;;;4.93;;
18649;SDS011;9454;53.516;10.478;2023-06-26T00:04:24;7.30;;;5.55;;
18649;SDS011;9454;53.516;10.478;2023-06-26T00:07:34;6.93;;;5.22;;
18649;SDS011;9454;53.516;10.478;2023-06-26T00:10:38;7.25;;;4.85;;
18649;SDS011;9454;53.516;10.478;2023-06-26T00:13:42;7.07;;;4.97;;
18649;SDS011;9454;53.516;10.478;2023-06-26T00:16:47;8.27;;;5.03;;
18649;SDS011;9454;53.516;10.478;2023-06-26T00:19:54;9.15;;;5.25;;
18649;SDS011;9454;53.516;10.478;2023-06-26T00:22:58;6.50;;;4.88;;
18649;SDS011;9454;53.516;10.478;2023-06-26T00:26:02;8.88;;;5.07;;
18649;SDS011;9454;53.516;10.478;2023-06-26T00:29:05;8.40;;;5.40;;
18649;SDS011;9454;53.516;10.478;2023-06-26T00:32:11;8.80;;;5.15;;
18649;SDS011;9454;53.516;10.478;2023-06-26T00:35:14;6.57;;;5.28;;
18649;SDS011;9454;53.516;10.478;2023-06-26T00:38:19;7.10;;;4.90;;
18649;SDS011;9454;53.516;10.478;2023-06-26T00:41:24;7.40;;;5.30;;
18649;SDS011;9454;53.516;10.478;2023-06-26T00:44:32;7.57;;;4.82;;
18649;SDS011;9454;53.516;10.478;2023-06-26T00:47:40;7.72;;;5.53;;
18649;SDS011;9454;53.516;10.478;2023-06-26T00:50:45;7.38;;;4.95;;
18649;SDS011;9454;53.516;10.478;2023-06-26T00:53:48;9.10;;;6.03;;
18649;SDS011;9454;53.516;10.478;2023-06-26T00:56:56;7.43;;;5.30;;
18649;SDS011;9454;53.516;10.478;2023-06-26T01:00:01;8.70;;;5.82;;
18649;SDS011;9454;53.516;10.478;2023-06-26T01:03:07;7.35;;;5.22;;
18649;SDS011;9454;53.516;10.478;2023-06-26T01:06:13;8.20;;;5.53;;
18649;SDS011;9454;53.516;10.478;2023-06-26T01:09:17;6.97;;;5.15;;
18649;SDS011;9454;53.516;10.478;2023-06-26T01:12:25;7.38;;;4.95;;
18649;SDS011;9454;53.516;10.478;2023-06-26T01:15:30;7.25;;;5.50;;
18649;SDS011;9454;53.516;10.478;2023-06-26T01:18:35;7.25;;;5.38;;
18649;SDS011;9454;53.516;10.478;2023-06-26T01:21:44;6.82;;;4.65;;
18649;SDS011;9454;53.516;10.478;2023-06-26T01:24:53;7.50;;;5.13;;
18649;SDS011;9454;53.516;10.478;2023-06-26T01:28:00;5.72;;;4.68;;
18649;SDS011;9454;53.516;10.478;2023-06-26T01:31:04;8.15;;;5.32;;
18649;SDS011;9454;53.516;10.478;2023-06-26T01:34:12;6.57;;;4.63;;
18649;SDS011;9454;53.516;10.478;2023-06-26T01:37:17;8.68;;;5.38;;
18649;SDS011;9454;53.516;10.478;2023-06-26T01:40:20;9.13;;;5.28;;
18649;SDS011;9454;53.516;10.478;2023-06-26T01:43:31;9.27;;;5.35;;
18649;SDS011;9454;53.516;10.478;2023-06-26T01:46:39;9.07;;;4.78;;
18649;SDS011;9454;53.516;10.478;2023-06-26T01:49:49;9.32;;;5.13;;
18649;SDS011;9454;53.516;10.478;2023-06-26T01:53:01;8.73;;;5.55;;
18649;SDS011;9454;53.516;10.478;2023-06-26T01:56:06;7.30;;;4.95;;
18649;SDS011;9454;53.516;10.478;2023-06-26T01:59:13;8.35;;;5.13;;
18649;SDS011;9454;53.516;10.478;2023-06-26T02:02:17;8.10;;;5.25;;
18649;SDS011;9454;53.516;10.478;2023-06-26T02:05:22;7.57;;;5.20;;
18649;SDS011;9454;53.516;10.478;2023-06-26T02:08:26;8.00;;;5.85;;
18649;SDS011;9454;53.516;10.478;2023-06-26T02:11:32;7.70;;;5.03;;
18649;SDS011;9454;53.516;10.478;2023-06-26T02:14:37;6.82;;;4.93;;
18649;SDS011;9454;53.516;10.478;2023-06-26T02:17:41;10.43;;;5.00;;
18649;SDS011;9454;53.516;10.478;2023-06-26T02:20:45;6.57;;;4.78;;
18649;SDS011;9454;53.516;10.478;2023-06-26T02:23:51;7.05;;;4.78;;
18649;SDS011;9454;53.516;10.478;2023-06-26T02:26:55;6.47;;;5.30;;
18649;SDS011;9454;53.516;10.478;2023-06-26T02:30:02;7.97;;;5.15;;
18649;SDS011;9454;53.516;10.478;2023-06-26T02:33:06;7.10;;;4.78;;
18649;SDS011;9454;53.516;10.478;2023-06-26T02:36:13;8.18;;;5.20;;
18649;SDS011;9454;53.516;10.478;2023-06-26T02:39:17;11.48;;;5.43;;
18649;SDS011;9454;53.516;10.478;2023-06-26T02:42:21;7.57;;;4.75;;
18649;SDS011;9454;53.516;10.478;2023-06-26T02:45:26;8.95;;;5.40;;
18649;SDS011;9454;53.516;10.478;2023-06-26T02:48:31;8.95;;;4.82;;
18649;SDS011;9454;53.516;10.478;2023-06-26T02:51:34;7.88;;;5.32;;
18649;SDS011;9454;53.516;10.478;2023-06-26T02:54:46;7.70;;;5.38;;
18649;SDS011;9454;53.516;10.478;2023-06-26T02:57:49;8.57;;;5.68;;
18649;SDS011;9454;53.516;10.478;2023-06-26T03:00:59;9.95;;;5.88;;
18649;SDS011;9454;53.516;10.478;2023-06-26T03:04:04;6.60;;;5.38;;
18649;SDS011;9454;53.516;10.478;2023-06-26T03:07:08;7.60;;;5.40;;
18649;SDS011;9454;53.516;10.478;2023-06-26T03:10:13;8.60;;;5.72;;
18649;SDS011;9454;53.516;10.478;2023-06-26T03:13:19;9.88;;;6.07;;
18649;SDS011;9454;53.516;10.478;2023-06-26T03:16:24;9.25;;;5.20;;
18649;SDS011;9454;53.516;10.478;2023-06-26T03:19:28;9.43;;;5.28;;
18649;SDS011;9454;53.516;10.478;2023-06-26T03:22:53;8.13;;;5.32;;
18649;SDS011;9454;53.516;10.478;2023-06-26T03:26:00;8.23;;;5.72;;
18649;SDS011;9454;53.516;10.478;2023-06-26T03:29:06;10.75;;;5.95;;
18649;SDS011;9454;53.516;10.478;2023-06-26T03:32:13;13.23;;;5.80;;
18649;SDS011;9454;53.516;10.478;2023-06-26T03:35:16;10.13;;;5.47;;
18649;SDS011;9454;53.516;10.478;2023-06-26T03:38:21;9.38;;;5.53;;
18649;SDS011;9454;53.516;10.478;2023-06-26T03:41:29;6.97;;;5.15;;
18649;SDS011;9454;53.516;10.478;2023-06-26T03:44:33;7.63;;;5.43;;
18649;SDS011;9454;53.516;10.478;2023-06-26T03:47:38;7.72;;;4.97;;
18649;SDS011;9454;53.516;10.478;2023-06-26T03:50:42;5.57;;;4.35;;
18649;SDS011;9454;53.516;10.478;2023-06-26T03:53:46;6.88;;;4.45;;
18649;SDS011;9454;53.516;10.478;2023-06-26T03:56:51;8.07;;;4.95;;
18649;SDS011;9454;53.516;10.478;2023-06-26T03:59:55;8.23;;;5.18;;
18649;SDS011;9454;53.516;10.478;2023-06-26T04:03:04;7.05;;;5.25;;
18649;SDS011;9454;53.516;10.478;2023-06-26T04:06:08;7.43;;;5.20;;
18649;SDS011;9454;53.516;10.478;2023-06-26T04:09:12;8.32;;;5.20;;
18649;SDS011;9454;53.516;10.478;2023-06-26T04:12:20;7.75;;;5.63;;
18649;SDS011;9454;53.516;10.478;2023-06-26T04:15:26;9.80;;;4.95;;
18649;SDS011;9454;53.516;10.478;2023-06-26T04:18:32;6.38;;;4.07;;
18649;SDS011;9454;53.516;10.478;2023-06-26T04:21:36;7.57;;;4.70;;
18649;SDS011;9454;53.516;10.478;2023-06-26T04:24:39;11.13;;;5.00;;
18649;SDS011;9454;53.516;10.478;2023-06-26T04:27:43;12.82;;;5.57;;
18649;SDS011;9454;53.516;10.478;2023-06-26T04:30:47;7.57;;;4.68;;
18649;SDS011;9454;53.516;10.478;2023-06-26T04:33:52;6.88;;;4.85;;
18649;SDS011;9454;53.516;10.478;2023-06-26T04:36:56;8.43;;;5.00;;
18649;SDS011;9454;53.516;10.478;2023-06-26T04:40:01;11.20;;;4.78;;
18649;SDS011;9454;53.516;10.478;2023-06-26T04:43:07;9.38;;;5.30;;
18649;SDS011;9454;53.516;10.478;2023-06-26T04:46:11;9.80;;;4.72;;
18649;SDS011;9454;53.516;10.478;2023-06-26T04:49:17;6.60;;;4.85;;
18649;SDS011;9454;53.516;10.478;2023-06-26T04:52:21;8.98;;;5.10;;
18649;SDS011;9454;53.516;10.478;2023-06-26T04:55:26;7.80;;;4.53;;
18649;SDS011;9454;53.516;10.478;2023-06-26T04:58:30;7.53;;;4.63;;
18649;SDS011;9454;53.516;10.478;2023-06-26T05:01:34;6.95;;;4.20;;
18649;SDS011;9454;53.516;10.478;2023-06-26T05:04:42;6.35;;;4.68;;
18649;SDS011;9454;53.516;10.478;2023-06-26T05:07:48;6.82;;;4.18;;
18649;SDS011;9454;53.516;10.478;2023-06-26T05:10:51;10.15;;;4.72;;
18649;SDS011;9454;53.516;10.478;2023-06-26T05:13:59;9.40;;;5.22;;
18649;SDS011;9454;53.516;10.478;2023-06-26T05:17:03;7.47;;;5.00;;
18649;SDS011;9454;53.516;10.478;2023-06-26T05:20:10;8.68;;;5.38;;
18649;SDS011;9454;53.516;10.478;2023-06-26T05:23:14;6.65;;;4.50;;
18649;SDS011;9454;53.516;10.478;2023-06-26T05:26:19;8.60;;;4.82;;
18649;SDS011;9454;53.516;10.478;2023-06-26T05:29:24;10.02;;;4.80;;
18649;SDS011;9454;53.516;10.478;2023-06-26T05:32:28;10.65;;;4.20;;
18649;SDS011;9454;53.516;10.478;2023-06-26T05:35:35;11.23;;;4.57;;
18649;SDS011;9454;53.516;10.478;2023-06-26T05:38:39;7.68;;;4.63;;
18649;SDS011;9454;53.516;10.478;2023-06-26T05:41:43;6.45;;;4.45;;
18649;SDS011;9454;53.516;10.478;2023-06-26T05:44:47;10.30;;;4.30;;
18649;SDS011;9454;53.516;10.478;2023-06-26T05:47:51;7.97;;;4.50;;
18649;SDS011;9454;53.516;10.478;2023-06-26T05:50:57;7.32;;;4.57;;
18649;SDS011;9454;53.516;10.478;2023-06-26T05:54:01;7.65;;;4.55;;
18649;SDS011;9454;53.516;10.478;2023-06-26T05:57:05;5.82;;;3.92;;
18649;SDS011;9454;53.516;10.478;2023-06-26T06:00:10;6.82;;;4.65;;
18649;SDS011;9454;53.516;10.478;2023-06-26T06:03:14;9.23;;;3.97;;
18649;SDS011;9454;53.516;10.478;2023-06-26T06:06:20;6.40;;;3.80;;
18649;SDS011;9454;53.516;10.478;2023-06-26T06:09:24;6.65;;;3.95;;
18649;SDS011;9454;53.516;10.478;2023-06-26T06:12:28;5.88;;;3.65;;
18649;SDS011;9454;53.516;10.478;2023-06-26T06:15:31;6.15;;;4.50;;
18649;SDS011;9454;53.516;10.478;2023-06-26T06:18:35;5.00;;;3.40;;
18649;SDS011;9454;53.516;10.478;2023-06-26T06:21:44;6.45;;;3.70;;
18649;SDS011;9454;53.516;10.478;2023-06-26T06:24:48;6.50;;;3.92;;
18649;SDS011;9454;53.516;10.478;2023-06-26T06:27:53;5.30;;;3.65;;
18649;SDS011;9454;53.516;10.478;2023-06-26T06:30:57;7.28;;;4.00;;
18649;SDS011;9454;53.516;10.478;2023-06-26T06:34:00;6.80;;;3.55;;
18649;SDS011;9454;53.516;10.478;2023-06-26T06:37:06;5.53;;;3.88;;
18649;SDS011;9454;53.516;10.478;2023-06-26T06:40:11;5.65;;;3.65;;
18649;SDS011;9454;53.516;10.478;2023-06-26T06:43:14;5.95;;;3.90;;
18649;SDS011;9454;53.516;10.478;2023-06-26T06:46:19;4.90;;;3.25;;
18649;SDS011;9454;53.516;10.478;2023-06-26T06:49:23;6.57;;;3.90;;
18649;SDS011;9454;53.516;10.478;2023-06-26T06:52:29;5.68;;;3.72;;
18649;SDS011;9454;53.516;10.478;2023-06-26T06:55:33;5.40;;;3.50;;
18649;SDS011;9454;53.516;10.478;2023-06-26T06:58:36;6.00;;;3.72;;
18649;SDS011;9454;53.516;10.478;2023-06-26T07:13:04;5.95;;;3.40;;
18649;SDS011;9454;53.516;10.478;2023-06-26T07:16:08;5.95;;;3.10;;
18649;SDS011;9454;53.516;10.478;2023-06-26T07:19:13;9.55;;;3.78;;
18649;SDS011;9454;53.516;10.478;2023-06-26T07:22:17;4.75;;;3.22;;
18649;SDS011;9454;53.516;10.478;2023-06-26T07:25:21;5.70;;;3.35;;
18649;SDS011;9454;53.516;10.478;2023-06-26T07:28:27;5.88;;;3.90;;
18649;SDS011;9454;53.516;10.478;2023-06-26T07:31:31;5.60;;;3.58;;
18649;SDS011;9454;53.516;10.478;2023-06-26T07:34:35;3.78;;;2.83;;
18649;SDS011;9454;53.516;10.478;2023-06-26T07:37:38;4.22;;;2.70;;
18649;SDS011;9454;53.516;10.478;2023-06-26T07:40:43;8.48;;;3.50;;
18649;SDS011;9454;53.516;10.478;2023-06-26T07:43:48;4.85;;;3.30;;
18649;SDS011;9454;53.516;10.478;2023-06-26T07:46:51;5.82;;;3.20;;
18649;SDS011;9454;53.516;10.478;2023-06-26T07:49:55;5.05;;;3.42;;
18649;SDS011;9454;53.516;10.478;2023-06-26T07:52:59;5.90;;;3.63;;
18649;SDS011;9454;53.516;10.478;2023-06-26T07:56:07;4.57;;;2.97;;
18649;SDS011;9454;53.516;10.478;2023-06-26T07:59:12;4.55;;;3.22;;
18649;SDS011;9454;53.516;10.478;2023-06-26T08:02:15;4.45;;;3.45;;
18649;SDS011;9454;53.516;10.478;2023-06-26T08:05:20;4.90;;;3.38;;
18649;SDS011;9454;53.516;10.478;2023-06-26T08:08:24;5.18;;;3.13;;
18649;SDS011;9454;53.516;10.478;2023-06-26T08:11:28;6.18;;;3.28;;
18649;SDS011;9454;53.516;10.478;2023-06-26T08:14:33;7.07;;;3.20;;
18649;SDS011;9454;53.516;10.478;2023-06-26T08:17:37;5.00;;;3.15;;
18649;SDS011;9454;53.516;10.478;2023-06-26T08:20:41;4.97;;;3.03;;
18649;SDS011;9454;53.516;10.478;2023-06-26T08:23:45;6.28;;;3.15;;
18649;SDS011;9454;53.516;10.478;2023-06-26T08:26:49;5.75;;;2.83;;
18649;SDS011;9454;53.516;10.478;2023-06-26T08:29:55;5.13;;;3.33;;
18649;SDS011;9454;53.516;10.478;2023-06-26T08:32:58;6.47;;;3.38;;
18649;SDS011;9454;53.516;10.478;2023-06-26T08:36:03;4.45;;;3.22;;
18649;SDS011;9454;53.516;10.478;2023-06-26T08:39:06;4.93;;;3.15;;
18649;SDS011;9454;53.516;10.478;2023-06-26T08:42:10;6.03;;;3.58;;
18649;SDS011;9454;53.516;10.478;2023-06-26T08:45:17;5.22;;;3.60;;
18649;SDS011;9454;53.516;10.478;2023-06-26T08:48:22;4.78;;;3.38;;
18649;SDS011;9454;53.516;10.478;2023-06-26T08:51:25;4.30;;;3.08;;
18649;SDS011;9454;53.516;10.478;2023-06-26T08:54:33;4.80;;;3.35;;
18649;SDS011;9454;53.516;10.478;2023-06-26T08:57:37;4.53;;;3.10;;
18649;SDS011;9454;53.516;10.478;2023-06-26T09:00:43;5.30;;;3.45;;
18649;SDS011;9454;53.516;10.478;2023-06-26T09:03:47;4.38;;;3.38;;
18649;SDS011;9454;53.516;10.478;2023-06-26T09:06:51;8.48;;;3.42;;
18649;SDS011;9454;53.516;10.478;2023-06-26T09:09:55;4.47;;;3.20;;
18649;SDS011;9454;53.516;10.478;2023-06-26T09:12:59;12.60;;;4.03;;
18649;SDS011;9454;53.516;10.478;2023-06-26T09:16:08;5.35;;;3.53;;
18649;SDS011;9454;53.516;10.478;2023-06-26T09:19:11;7.60;;;4.38;;
18649;SDS011;9454;53.516;10.478;2023-06-26T09:22:15;7.10;;;4.15;;
18649;SDS011;9454;53.516;10.478;2023-06-26T09:25:20;6.65;;;3.58;;
18649;SDS011;9454;53.516;10.478;2023-06-26T09:28:25;5.47;;;3.58;;
18649;SDS011;9454;53.516;10.478;2023-06-26T09:31:30;6.80;;;4.10;;
18649;SDS011;9454;53.516;10.478;2023-06-26T09:34:43;3.95;;;2.92;;
18649;SDS011;9454;53.516;10.478;2023-06-26T09:37:47;9.35;;;3.67;;
18649;SDS011;9454;53.516;10.478;2023-06-26T09:40:51;5.47;;;3.78;;
18649;SDS011;9454;53.516;10.478;2023-06-26T09:43:55;6.80;;;3.78;;
18649;SDS011;9454;53.516;10.478;2023-06-26T09:47:02;9.45;;;4.03;;
18649;SDS011;9454;53.516;10.478;2023-06-26T09:50:06;6.28;;;4.30;;
18649;SDS011;9454;53.516;10.478;2023-06-26T09:53:23;9.32;;;3.75;;
18649;SDS011;9454;53.516;10.478;2023-06-26T09:56:29;5.90;;;4.38;;
18649;SDS011;9454;53.516;10.478;2023-06-26T09:59:32;11.60;;;3.97;;
18649;SDS011;9454;53.516;10.478;2023-06-26T10:02:38;6.07;;;4.60;;
18649;SDS011;9454;53.516;10.478;2023-06-26T10:05:42;8.57;;;4.82;;
18649;SDS011;9454;53.516;10.478;2023-06-26T10:08:48;11.82;;;4.50;;
18649;SDS011;9454;53.516;10.478;2023-06-26T10:11:53;11.60;;;4.78;;
18649;SDS011;9454;53.516;10.478;2023-06-26T10:14:59;7.72;;;4.38;;
18649;SDS011;9454;53.516;10.478;2023-06-26T10:18:08;8.98;;;4.30;;
18649;SDS011;9454;53.516;10.478;2023-06-26T10:21:12;6.85;;;4.97;;
18649;SDS011;9454;53.516;10.478;2023-06-26T10:24:17;10.00;;;4.72;;
18649;SDS011;9454;53.516;10.478;2023-06-26T10:27:23;7.72;;;5.03;;
18649;SDS011;9454;53.516;10.478;2023-06-26T10:30:28;8.25;;;4.63;;
18649;SDS011;9454;53.516;10.478;2023-06-26T10:33:33;13.57;;;5.30;;
18649;SDS011;9454;53.516;10.478;2023-06-26T10:36:37;9.00;;;5.07;;
18649;SDS011;9454;53.516;10.478;2023-06-26T10:39:48;8.02;;;5.13;;
18649;SDS011;9454;53.516;10.478;2023-06-26T10:43:04;7.13;;;4.65;;
18649;SDS011;9454;53.516;10.478;2023-06-26T10:46:09;9.77;;;4.78;;
18649;SDS011;9454;53.516;10.478;2023-06-26T10:49:15;17.17;;;4.90;;
18649;SDS011;9454;53.516;10.478;2023-06-26T10:52:18;12.82;;;4.90;;
18649;SDS011;9454;53.516;10.478;2023-06-26T10:55:27;6.95;;;4.13;;
18649;SDS011;9454;53.516;10.478;2023-06-26T10:58:32;8.55;;;3.50;;
18649;SDS011;9454;53.516;10.478;2023-06-26T11:01:40;9.02;;;3.78;;
18649;SDS011;9454;53.516;10.478;2023-06-26T11:04:45;5.47;;;3.10;;
18649;SDS011;9454;53.516;10.478;2023-06-26T11:08:02;11.50;;;3.35;;
18649;SDS011;9454;53.516;10.478;2023-06-26T11:11:06;6.88;;;3.22;;
18649;SDS011;9454;53.516;10.478;2023-06-26T11:14:11;4.65;;;2.67;;
18649;SDS011;9454;53.516;10.478;2023-06-26T11:17:15;5.00;;;2.78;;
18649;SDS011;9454;53.516;10.478;2023-06-26T11:20:23;4.40;;;2.58;;
18649;SDS011;9454;53.516;10.478;2023-06-26T11:23:27;3.85;;;2.45;;
18649;SDS011;9454;53.516;10.478;2023-06-26T11:26:34;5.80;;;2.53;;
18649;SDS011;9454;53.516;10.478;2023-06-26T11:29:46;4.10;;;2.67;;
18649;SDS011;9454;53.516;10.478;2023-06-26T11:32:51;5.85;;;3.00;;
18649;SDS011;9454;53.516;10.478;2023-06-26T11:35:57;6.40;;;3.00;;
18649;SDS011;9454;53.516;10.478;2023-06-26T11:39:10;11.98;;;3.28;;
18649;SDS011;9454;53.516;10.478;2023-06-26T11:42:14;6.18;;;3.35;;
18649;SDS011;9454;53.516;10.478;2023-06-26T11:45:18;5.50;;;3.28;;
18649;SDS011;9454;53.516;10.478;2023-06-26T11:48:22;5.28;;;3.25;;
18649;SDS011;9454;53.516;10.478;2023-06-26T11:51:30;5.35;;;3.22;;
18649;SDS011;9454;53.516;10.478;2023-06-26T11:54:33;8.00;;;3.42;;
18649;SDS011;9454;53.516;10.478;2023-06-26T11:57:37;7.22;;;3.28;;
18649;SDS011;9454;53.516;10.478;2023-06-26T12:00:41;4.78;;;3.20;;
18649;SDS011;9454;53.516;10.478;2023-06-26T12:03:46;10.35;;;4.38;;
18649;SDS011;9454;53.516;10.478;2023-06-26T12:06:52;6.10;;;3.15;;
18649;SDS011;9454;53.516;10.478;2023-06-26T12:09:58;7.25;;;2.97;;
18649;SDS011;9454;53.516;10.478;2023-06-26T12:13:02;6.28;;;3.22;;
18649;SDS011;9454;53.516;10.478;2023-06-26T12:16:07;6.10;;;3.00;;
18649;SDS011;9454;53.516;10.478;2023-06-26T12:19:11;11.15;;;3.40;;
18649;SDS011;9454;53.516;10.478;2023-06-26T12:22:17;9.13;;;2.95;;
18649;SDS011;9454;53.516;10.478;2023-06-26T12:25:21;6.45;;;2.78;;
18649;SDS011;9454;53.516;10.478;2023-06-26T12:28:25;8.32;;;3.08;;
18649;SDS011;9454;53.516;10.478;2023-06-26T12:31:29;11.77;;;3.22;;
18649;SDS011;9454;53.516;10.478;2023-06-26T12:34:38;8.25;;;2.97;;
18649;SDS011;9454;53.516;10.478;2023-06-26T12:37:44;8.68;;;2.67;;
18649;SDS011;9454;53.516;10.478;2023-06-26T12:40:48;9.75;;;2.58;;
18649;SDS011;9454;53.516;10.478;2023-06-26T12:43:55;6.65;;;2.47;;
18649;SDS011;9454;53.516;10.478;2023-06-26T12:47:01;6.88;;;2.33;;
18649;SDS011;9454;53.516;10.478;2023-06-26T12:50:05;6.75;;;2.03;;
18649;SDS011;9454;53.516;10.478;2023-06-26T12:53:11;8.30;;;2.28;;
18649;SDS011;9454;53.516;10.478;2023-06-26T12:56:15;6.80;;;1.63;;
18649;SDS011;9454;53.516;10.478;2023-06-26T12:59:20;5.50;;;1.63;;
18649;SDS011;9454;53.516;10.478;2023-06-26T13:02:24;9.18;;;1.60;;
18649;SDS011;9454;53.516;10.478;2023-06-26T13:05:28;4.10;;;1.77;;
18649;SDS011;9454;53.516;10.478;2023-06-26T13:08:34;5.45;;;1.42;;
18649;SDS011;9454;53.516;10.478;2023-06-26T13:11:46;9.00;;;1.88;;
18649;SDS011;9454;53.516;10.478;2023-06-26T13:14:59;7.50;;;2.00;;
18649;SDS011;9454;53.516;10.478;2023-06-26T13:18:14;5.13;;;1.65;;
18649;SDS011;9454;53.516;10.478;2023-06-26T13:21:18;7.05;;;1.63;;
18649;SDS011;9454;53.516;10.478;2023-06-26T13:24:24;5.15;;;1.48;;
18649;SDS011;9454;53.516;10.478;2023-06-26T13:27:28;5.75;;;1.73;;
18649;SDS011;9454;53.516;10.478;2023-06-26T13:30:32;7.90;;;1.65;;
18649;SDS011;9454;53.516;10.478;2023-06-26T13:33:37;4.20;;;1.50;;
18649;SDS011;9454;53.516;10.478;2023-06-26T13:36:41;11.15;;;4.95;;
18649;SDS011;9454;53.516;10.478;2023-06-26T13:39:46;8.32;;;1.95;;
18649;SDS011;9454;53.516;10.478;2023-06-26T13:42:51;4.15;;;1.67;;
18649;SDS011;9454;53.516;10.478;2023-06-26T13:45:55;8.32;;;2.03;;
18649;SDS011;9454;53.516;10.478;2023-06-26T13:48:59;2.08;;;1.25;;
18649;SDS011;9454;53.516;10.478;2023-06-26T13:52:03;7.22;;;1.58;;
18649;SDS011;9454;53.516;10.478;2023-06-26T13:55:10;6.93;;;1.70;;
18649;SDS011;9454;53.516;10.478;2023-06-26T13:58:14;3.13;;;1.42;;
18649;SDS011;9454;53.516;10.478;2023-06-26T14:01:18;3.95;;;1.70;;
18649;SDS011;9454;53.516;10.478;2023-06-26T14:04:23;4.00;;;1.23;;
18649;SDS011;9454;53.516;10.478;2023-06-26T14:07:26;5.35;;;1.33;;
18649;SDS011;9454;53.516;10.478;2023-06-26T14:10:33;3.30;;;1.50;;
18649;SDS011;9454;53.516;10.478;2023-06-26T14:13:37;5.50;;;1.80;;
18649;SDS011;9454;53.516;10.478;2023-06-26T14:16:42;4.47;;;1.38;;
18649;SDS011;9454;53.516;10.478;2023-06-26T14:19:45;7.15;;;1.80;;
18649;SDS011;9454;53.516;10.478;2023-06-26T14:22:50;6.97;;;1.45;;
18649;SDS011;9454;53.516;10.478;2023-06-26T14:25:55;3.13;;;1.02;;
18649;SDS011;9454;53.516;10.478;2023-06-26T14:28:59;2.53;;;1.25;;
18649;SDS011;9454;53.516;10.478;2023-06-26T14:32:03;3.90;;;1.23;;
18649;SDS011;9454;53.516;10.478;2023-06-26T14:35:08;3.50;;;1.00;;
18649;SDS011;9454;53.516;10.478;2023-06-26T14:38:12;7.93;;;1.67;;
18649;SDS011;9454;53.516;10.478;2023-06-26T14:41:18;6.07;;;1.60;;
18649;SDS011;9454;53.516;10.478;2023-06-26T14:44:22;7.50;;;1.33;;
18649;SDS011;9454;53.516;10.478;2023-06-26T14:47:28;6.10;;;1.10;;
18649;SDS011;9454;53.516;10.478;2023-06-26T14:50:32;3.25;;;1.05;;
18649;SDS011;9454;53.516;10.478;2023-06-26T14:53:38;1.90;;;1.23;;
18649;SDS011;9454;53.516;10.478;2023-06-26T14:56:44;3.88;;;1.33;;
18649;SDS011;9454;53.516;10.478;2023-06-26T14:59:48;2.35;;;1.58;;
18649;SDS011;9454;53.516;10.478;2023-06-26T15:02:52;3.65;;;1.00;;
18649;SDS011;9454;53.516;10.478;2023-06-26T15:05:59;3.50;;;0.82;;
18649;SDS011;9454;53.516;10.478;2023-06-26T15:09:03;3.08;;;1.00;;
18649;SDS011;9454;53.516;10.478;2023-06-26T15:12:08;3.28;;;1.08;;
18649;SDS011;9454;53.516;10.478;2023-06-26T15:15:13;7.97;;;1.38;;
18649;SDS011;9454;53.516;10.478;2023-06-26T15:18:18;3.30;;;1.08;;
18649;SDS011;9454;53.516;10.478;2023-06-26T15:21:22;1.80;;;0.82;;
18649;SDS011;9454;53.516;10.478;2023-06-26T15:24:26;2.80;;;1.05;;
18649;SDS011;9454;53.516;10.478;2023-06-26T15:27:31;1.75;;;0.88;;
18649;SDS011;9454;53.516;10.478;2023-06-26T15:30:34;5.47;;;1.02;;
18649;SDS011;9454;53.516;10.478;2023-06-26T15:33:39;9.60;;;1.08;;
18649;SDS011;9454;53.516;10.478;2023-06-26T15:36:42;2.25;;;0.90;;
18649;SDS011;9454;53.516;10.478;2023-06-26T15:39:47;3.60;;;1.15;;
18649;SDS011;9454;53.516;10.478;2023-06-26T15:42:54;2.25;;;1.15;;
18649;SDS011;9454;53.516;10.478;2023-06-26T15:45:58;2.53;;;1.00;;
18649;SDS011;9454;53.516;10.478;2023-06-26T15:49:02;3.92;;;0.85;;
18649;SDS011;9454;53.516;10.478;2023-06-26T15:52:06;6.55;;;0.98;;
18649;SDS011;9454;53.516;10.478;2023-06-26T15:55:09;3.97;;;1.00;;
18649;SDS011;9454;53.516;10.478;2023-06-26T15:58:14;1.17;;;0.82;;
18649;SDS011;9454;53.516;10.478;2023-06-26T16:01:18;1.25;;;0.73;;
18649;SDS011;9454;53.516;10.478;2023-06-26T16:04:22;1.02;;;0.82;;
18649;SDS011;9454;53.516;10.478;2023-06-26T16:07:26;1.73;;;0.60;;
18649;SDS011;9454;53.516;10.478;2023-06-26T16:10:47;1.55;;;0.63;;
18649;SDS011;9454;53.516;10.478;2023-06-26T16:13:52;3.83;;;1.00;;
18649;SDS011;9454;53.516;10.478;2023-06-26T16:16:56;3.03;;;1.00;;
18649;SDS011;9454;53.516;10.478;2023-06-26T16:20:01;1.13;;;0.82;;
18649;SDS011;9454;53.516;10.478;2023-06-26T16:23:05;2.38;;;0.93;;
18649;SDS011;9454;53.516;10.478;2023-06-26T16:26:09;1.83;;;0.80;;
18649;SDS011;9454;53.516;10.478;2023-06-26T16:29:15;3.25;;;0.60;;
18649;SDS011;9454;53.516;10.478;2023-06-26T16:32:19;2.30;;;0.88;;
18649;SDS011;9454;53.516;10.478;2023-06-26T16:35:23;3.15;;;0.70;;
18649;SDS011;9454;53.516;10.478;2023-06-26T16:38:27;0.98;;;0.65;;
18649;SDS011;9454;53.516;10.478;2023-06-26T16:41:30;4.85;;;0.90;;
18649;SDS011;9454;53.516;10.478;2023-06-26T16:44:35;2.20;;;0.80;;
18649;SDS011;9454;53.516;10.478;2023-06-26T16:47:39;2.65;;;0.90;;
18649;SDS011;9454;53.516;10.478;2023-06-26T16:50:43;4.07;;;1.00;;
18649;SDS011;9454;53.516;10.478;2023-06-26T16:53:48;10.63;;;1.20;;
18649;SDS011;9454;53.516;10.478;2023-06-26T16:56:52;4.55;;;1.20;;
18649;SDS011;9454;53.516;10.478;2023-06-26T16:59:57;2.47;;;0.90;;
18649;SDS011;9454;53.516;10.478;2023-06-26T17:03:01;2.30;;;1.05;;
18649;SDS011;9454;53.516;10.478;2023-06-26T17:06:05;6.28;;;1.08;;
18649;SDS011;9454;53.516;10.478;2023-06-26T17:09:13;2.42;;;0.85;;
18649;SDS011;9454;53.516;10.478;2023-06-26T17:12:17;1.05;;;0.80;;
18649;SDS011;9454;53.516;10.478;2023-06-26T17:15:22;3.67;;;0.85;;
18649;SDS011;9454;53.516;10.478;2023-06-26T17:18:30;2.53;;;1.00;;
18649;SDS011;9454;53.516;10.478;2023-06-26T17:21:35;3.78;;;1.38;;
18649;SDS011;9454;53.516;10.478;2023-06-26T17:24:43;4.22;;;1.02;;
18649;SDS011;9454;53.516;10.478;2023-06-26T17:27:49;3.60;;;0.90;;
18649;SDS011;9454;53.516;10.478;2023-06-26T17:30:55;5.43;;;1.10;;
18649;SDS011;9454;53.516;10.478;2023-06-26T17:33:58;5.38;;;0.98;;
18649;SDS011;9454;53.516;10.478;2023-06-26T17:37:02;3.15;;;1.10;;
18649;SDS011;9454;53.516;10.478;2023-06-26T17:40:06;2.78;;;0.95;;
18649;SDS011;9454;53.516;10.478;2023-06-26T17:43:12;4.50;;;1.00;;
18649;SDS011;9454;53.516;10.478;2023-06-26T17:46:17;3.20;;;1.20;;
18649;SDS011;9454;53.516;10.478;2023-06-26T17:49:24;6.75;;;1.05;;
18649;SDS011;9454;53.516;10.478;2023-06-26T17:52:27;1.60;;;0.93;;
18649;SDS011;9454;53.516;10.478;2023-06-26T17:55:31;4.57;;;1.08;;
18649;SDS011;9454;53.516;10.478;2023-06-26T17:58:34;1.67;;;0.95;;
18649;SDS011;9454;53.516;10.478;2023-06-26T18:01:40;2.80;;;1.13;;
18649;SDS011;9454;53.516;10.478;2023-06-26T18:04:44;6.18;;;1.50;;
18649;SDS011;9454;53.516;10.478;2023-06-26T18:07:49;3.90;;;1.40;;
18649;SDS011;9454;53.516;10.478;2023-06-26T18:10:58;4.40;;;1.20;;
18649;SDS011;9454;53.516;10.478;2023-06-26T18:14:02;3.90;;;1.15;;
18649;SDS011;9454;53.516;10.478;2023-06-26T18:17:07;5.60;;;1.08;;
18649;SDS011;9454;53.516;10.478;2023-06-26T18:20:11;2.67;;;1.10;;
18649;SDS011;9454;53.516;10.478;2023-06-26T18:23:15;3.97;;;1.25;;
18649;SDS011;9454;53.516;10.478;2023-06-26T18:26:18;2.42;;;1.10;;
18649;SDS011;9454;53.516;10.478;2023-06-26T18:29:22;6.30;;;1.75;;
18649;SDS011;9454;53.516;10.478;2023-06-26T18:32:27;1.95;;;1.27;;
18649;SDS011;9454;53.516;10.478;2023-06-26T18:35:34;3.35;;;1.20;;
18649;SDS011;9454;53.516;10.478;2023-06-26T18:38:39;6.25;;;1.50;;
18649;SDS011;9454;53.516;10.478;2023-06-26T18:41:43;4.15;;;1.38;;
18649;SDS011;9454;53.516;10.478;2023-06-26T18:44:46;4.70;;;1.10;;